UUEEUSRR

Guest
Details From UUEE - Moscou Sheremetyevo
To USRR - Surgut
Flight Number -
Tags Generated
Created
Modified
Stats Distance 1,153 nm / 2,136 km
Max Altitude 0 ft / 0 m
Waypoints 7
Social Downloads 2
Likes 0
Share VATSIM

Download

Looking for another format? Having issues loading an existing format? Contact us
Advertisement - Login to hide

Notes

Generated

Route

UUEE MAKAR AGONA POBAL PITEP GK USRR

ID Type Via Altitude Latitude Longitude Leg Dist Tot Dist Heading (true) Name
O UUEE APT - 0 ft / 0 m 55.96979˚ 37.38673˚ - 0 nm - -
MAKAR FIX - 0 ft / 0 m 57.88333˚ 43.78333˚ 238 nm 238 nm 59° / 64° -
AGONA FIX - 0 ft / 0 m 59.35000˚ 50.86667˚ 238 nm 477 nm 65° / 71° -
POBAL FIX - 0 ft / 0 m 60.28333˚ 57.60000˚ 210 nm 687 nm 72° / 78° -
PITEP FIX - 0 ft / 0 m 61.03333˚ 65.98333˚ 250 nm 938 nm 76° / 83° -
GK NDB - 0 ft / 0 m 61.34333˚ 73.30000˚ 212 nm 1151 nm 82° / 88° SURGUT NDB
O USRR APT - 0 ft / 0 m 61.34364˚ 73.37581˚ 2 nm 1153 nm 89° / 90° -

Altitude Profile

Advertisement - Login to hide

Weather


0- 5 10 15 20 25 30 35+ Temperature / ° C

Clouds and Precipitation
Forecast for 2017-12-17 06:00 UTC. Updated 2 hours ago

Ground ~20,000 ft ~40,000 ft Winds

UUEE

Details ICAO UUEE (SVO)
Name Moscou Sheremetyevo
Region Russia
Timezone Europe/Moscow (UTC+3.0)
Stats Elevation 622 ft / 190 m (AMSL)
Location 55.972642° 37.414586°
Runways 2
Magnetic Variation 11.166° E

METAR

UUEE 170230Z 16009G14MPS 8000 -RA OVC007 08/07 Q1001 WS R24L R24L/290151 R24R/290245 NOSIG

Decode

TAF

TAF UUEE 170200Z 1703/1803 16007MPS 9000 OVC011 TX06/1706Z TNM01/1724Z TEMPO 1703/1709 3100 -SHRA OVC004 SCT010CB BECMG 1704/1706 23006MPS BECMG 1716/1720 36005MPS

Decode

Departure Runways

ID Width Length Bearing (true) Bearing (mag) Surface Threshold Offset Overrun Length
07L 197 ft / 60 m 11,613 ft / 3,540 m 74.99° 63.82° Concrete 0 ft / 0 m 240 ft / 73 m
07R 197 ft / 60 m 12,127 ft / 3,696 m 75.03° 63.86° Concrete 0 ft / 0 m 235 ft / 72 m
25L 197 ft / 60 m 12,127 ft / 3,696 m 255.08° 243.91° Concrete 0 ft / 0 m 245 ft / 75 m
25R 197 ft / 60 m 11,613 ft / 3,540 m 255.04° 243.87° Concrete 0 ft / 0 m 245 ft / 75 m

USRR

Details ICAO USRR (SGC)
Name SURGUT
Region Russia
Timezone Asia/Yekaterinburg (UTC+5.0)
Stats Elevation 200 ft / 61 m (AMSL)
Location 61.343693° 73.401842°
Runways 1
Magnetic Variation 17.101° E

METAR

USRR 170230Z 22005MPS 7000 NSC M10/M13 Q1032 R25/32//50 NOSIG RMK QFE769

Decode

TAF

TAF TAF USRR 170155Z 1703/1803 23006MPS 9999 BKN020 TEMPO 1703/1709 3100 -SHSN BKN007 BKN015CB

Decode

Destination Runways

ID Width Length Bearing (true) Bearing (mag) Surface Threshold Offset Overrun Length
07 148 ft / 45 m 9,112 ft / 2,778 m 89.72° 72.62° Asphalt 0 ft / 0 m 165 ft / 50 m
25 148 ft / 45 m 9,112 ft / 2,778 m 269.76° 252.66° Asphalt 0 ft / 0 m 165 ft / 50 m

Popular Alternatives